createdAt,value
2019-04-21T00:01:49.041Z,67.63
2019-04-21T00:04:30.431Z,69.53
2019-04-21T00:07:08.751Z,71.10
2019-04-21T00:09:39.718Z,69.70
2019-04-21T00:12:07.529Z,58.87
2019-04-21T00:14:30.351Z,57.73
2019-04-21T00:16:57.495Z,61.63
2019-04-21T00:19:34.935Z,48.63
2019-04-21T00:22:14.207Z,52.30
2019-04-21T00:24:46.047Z,48.63
2019-04-21T00:27:20.009Z,46.40
2019-04-21T00:29:51.816Z,52.07
2019-04-21T00:32:20.694Z,54.57
2019-04-21T00:34:34.748Z,55.77
2019-04-21T00:37:15.537Z,60.13
2019-04-21T00:40:02.229Z,67.43
2019-04-21T00:42:27.415Z,68.67
2019-04-21T00:44:51.982Z,65.07
2019-04-21T00:47:30.659Z,61.77
2019-04-21T00:50:00.372Z,59.87
2019-04-21T00:52:46.248Z,49.83
2019-04-21T00:55:33.942Z,49.03
2019-04-21T00:57:53.383Z,48.17
2019-04-21T01:00:18.787Z,38.50
2019-04-21T01:02:53.696Z,41.50
2019-04-21T01:05:16.593Z,39.27
2019-04-21T01:07:42.463Z,47.53
2019-04-21T01:10:09.603Z,43.40
2019-04-21T01:12:48.991Z,38.27
2019-04-21T01:15:27.672Z,37.80
2019-04-21T01:17:52.181Z,43.10
2019-04-21T01:20:13.268Z,42.57
2019-04-21T01:22:29.465Z,39.13
2019-04-21T01:25:08.944Z,39.40
2019-04-21T01:27:49.536Z,37.57
2019-04-21T01:30:22.227Z,37.33
2019-04-21T01:32:53.313Z,37.73
2019-04-21T01:35:21.046Z,40.50
2019-04-21T01:38:06.859Z,32.00
2019-04-21T01:40:29.638Z,32.73
2019-04-21T01:42:50.761Z,36.93
2019-04-21T01:45:24.592Z,41.90
2019-04-21T01:47:52.159Z,38.07
2019-04-21T01:50:23.697Z,40.20
2019-04-21T01:53:02.367Z,43.03
2019-04-21T01:55:45.536Z,37.90
2019-04-21T01:58:11.545Z,41.97
2019-04-21T02:03:40.630Z,44.93
2019-04-21T02:05:59.660Z,41.27
2019-04-21T02:08:21.683Z,46.80
2019-04-21T02:11:00.961Z,42.53
2019-04-21T02:13:23.271Z,40.63
2019-04-21T02:16:02.066Z,43.50
2019-04-21T02:18:33.446Z,38.00
2019-04-21T02:20:45.899Z,45.23
2019-04-21T02:23:34.391Z,39.03
2019-04-21T02:25:57.468Z,37.13
2019-04-21T02:28:36.822Z,35.13
2019-04-21T02:31:18.147Z,38.20
2019-04-21T02:33:45.859Z,38.10
2019-04-21T02:38:53.049Z,37.60
2019-04-21T02:41:09.412Z,43.10
2019-04-21T02:43:44.907Z,38.30
2019-04-21T02:46:19.595Z,39.30
2019-04-21T02:48:43.595Z,35.67
2019-04-21T02:51:23.409Z,37.40
2019-04-21T02:54:03.746Z,37.70
2019-04-21T02:56:18.461Z,32.40
2019-04-21T02:58:52.313Z,39.10
2019-04-21T03:01:24.569Z,34.93
2019-04-21T03:04:04.806Z,35.00
2019-04-21T03:07:09.634Z,43.17
2019-04-21T03:09:26.223Z,47.33
2019-04-21T03:11:56.482Z,49.33
2019-04-21T03:14:29.957Z,45.73
2019-04-21T03:16:40.158Z,43.67
2019-04-21T03:19:33.225Z,42.33
2019-04-21T03:21:57.376Z,42.40
2019-04-21T03:24:18.453Z,39.33
2019-04-21T03:27:01.866Z,34.30
2019-04-21T03:29:28.213Z,41.00
2019-04-21T03:32:14.426Z,41.83
2019-04-21T03:34:51.308Z,38.00
2019-04-21T03:39:31.041Z,43.63
2019-04-21T03:42:14.144Z,41.63
2019-04-21T03:44:43.630Z,39.17
2019-04-21T03:47:02.177Z,37.70
2019-04-21T03:52:08.440Z,44.00
2019-04-21T03:54:33.025Z,43.73
2019-04-21T03:57:11.250Z,41.70
2019-04-21T03:59:25.045Z,40.40
2019-04-21T04:02:31.199Z,45.50
2019-04-21T04:04:44.141Z,39.87
2019-04-21T04:07:33.782Z,45.50
2019-04-21T04:12:32.824Z,49.20
2019-04-21T04:15:22.864Z,45.70
2019-04-21T04:20:07.865Z,41.13
2019-04-21T04:30:12.417Z,44.40
2019-04-21T04:32:36.798Z,42.40
2019-04-21T04:35:14.490Z,47.93
2019-04-21T04:37:36.660Z,45.83
2019-04-21T04:40:21.536Z,51.57
2019-04-21T04:50:29.966Z,41.17
2019-04-21T04:53:12.771Z,41.30
2019-04-21T04:55:26.285Z,39.57
2019-04-21T04:57:59.264Z,41.13
2019-04-21T05:00:34.983Z,42.00
2019-04-21T05:02:56.567Z,37.30
2019-04-21T05:05:27.812Z,35.97
2019-04-21T05:10:38.491Z,40.47
2019-04-21T05:12:58.172Z,35.30
2019-04-21T05:15:42.595Z,41.80
2019-04-21T05:18:03.175Z,43.20
2019-04-21T05:22:55.481Z,42.93
2019-04-21T05:25:19.610Z,42.70
2019-04-21T05:27:48.280Z,44.37
2019-04-21T05:30:36.958Z,42.93
2019-04-21T05:33:07.116Z,38.87
2019-04-21T05:35:47.927Z,39.63
2019-04-21T05:38:22.348Z,38.13
2019-04-21T05:40:51.340Z,35.37
2019-04-21T05:43:28.412Z,34.73
2019-04-21T05:45:58.289Z,37.93
2019-04-21T05:51:00.466Z,39.00
2019-04-21T05:56:03.608Z,43.47
2019-04-21T05:58:33.377Z,39.83
2019-04-21T06:01:30.104Z,33.73
2019-04-21T06:06:28.946Z,30.23
2019-04-21T06:08:47.841Z,30.00
2019-04-21T06:11:28.973Z,39.27
2019-04-21T06:13:55.021Z,30.43
2019-04-21T06:16:28.646Z,27.97
2019-04-21T06:21:38.576Z,25.27
2019-04-21T06:24:13.179Z,25.07
2019-04-21T06:26:50.390Z,23.30
2019-04-21T06:29:09.168Z,25.50
2019-04-21T06:31:57.427Z,25.97
2019-04-21T06:34:00.242Z,23.70
2019-04-21T06:36:42.248Z,22.33
2019-04-21T06:41:39.721Z,19.87
2019-04-21T06:44:11.907Z,18.42
2019-04-21T06:49:24.172Z,18.98
2019-04-21T06:55:02.598Z,22.00
2019-04-21T06:59:55.567Z,18.62
2019-04-21T07:07:35.526Z,20.40
2019-04-21T07:10:11.102Z,27.35
2019-04-21T07:12:33.637Z,20.00
2019-04-21T07:14:59.102Z,16.50
2019-04-21T07:17:35.729Z,18.00
2019-04-21T07:20:06.928Z,19.67
2019-04-21T07:22:38.374Z,16.60
2019-04-21T07:25:08.639Z,17.57
2019-04-21T07:27:42.757Z,12.53
2019-04-21T07:30:28.100Z,14.50
2019-04-21T07:32:40.040Z,15.78
2019-04-21T07:35:09.740Z,13.03
2019-04-21T07:37:46.104Z,14.07
2019-04-21T07:40:05.465Z,13.78
2019-04-21T07:42:39.991Z,12.00
2019-04-21T07:45:06.445Z,13.13
2019-04-21T07:47:53.473Z,13.53
2019-04-21T07:50:27.433Z,12.73
2019-04-21T07:53:21.227Z,12.68
2019-04-21T07:58:17.717Z,12.80
2019-04-21T08:00:51.075Z,10.30
2019-04-21T08:03:23.674Z,8.90
2019-04-21T08:05:52.696Z,10.00
2019-04-21T08:08:15.947Z,9.53
2019-04-21T08:10:47.424Z,7.10
2019-04-21T08:13:28.774Z,6.80
2019-04-21T08:15:50.991Z,6.67
2019-04-21T08:18:21.048Z,8.68
2019-04-21T08:20:53.432Z,10.40
2019-04-21T08:23:29.931Z,10.70
2019-04-21T08:25:58.944Z,11.68
2019-04-21T08:28:28.450Z,10.32
2019-04-21T08:30:55.407Z,9.68
2019-04-21T08:33:33.750Z,7.03
2019-04-21T08:36:11.024Z,10.82
2019-04-21T08:38:28.697Z,9.80
2019-04-21T08:41:05.126Z,8.98
2019-04-21T08:43:37.066Z,9.68
2019-04-21T08:45:58.725Z,7.85
2019-04-21T08:48:29.456Z,7.03
2019-04-21T08:51:14.210Z,7.00
2019-04-21T08:53:33.989Z,8.28
2019-04-21T08:56:10.618Z,7.12
2019-04-21T08:58:57.562Z,7.30
2019-04-21T09:01:47.421Z,7.75
2019-04-21T09:04:17.181Z,6.53
2019-04-21T09:06:54.167Z,7.65
2019-04-21T09:11:46.146Z,5.83
2019-04-21T09:14:13.716Z,6.83
2019-04-21T09:16:41.122Z,8.60
2019-04-21T09:19:20.177Z,7.95
2019-04-21T09:24:16.660Z,9.90
2019-04-21T09:26:46.123Z,8.35
2019-04-21T09:29:07.725Z,5.92
2019-04-21T09:31:33.843Z,6.37
2019-04-21T09:34:02.724Z,7.35
2019-04-21T09:36:38.235Z,7.00
2019-04-21T09:39:08.696Z,8.78
2019-04-21T09:41:34.345Z,5.03
2019-04-21T09:44:01.733Z,8.13
2019-04-21T09:46:34.125Z,5.97
2019-04-21T09:49:05.910Z,6.28
2019-04-21T09:51:32.668Z,5.35
2019-04-21T09:54:08.237Z,6.72
2019-04-21T09:56:43.626Z,6.50
2019-04-21T09:59:11.431Z,5.95
2019-04-21T10:01:50.370Z,5.30
2019-04-21T10:04:05.630Z,4.37
2019-04-21T10:06:34.996Z,6.42
2019-04-21T10:09:07.641Z,5.03
2019-04-21T10:11:37.514Z,6.95
2019-04-21T10:14:07.431Z,5.92
2019-04-21T10:16:47.138Z,8.90
2019-04-21T10:19:15.973Z,7.12
2019-04-21T10:21:44.819Z,5.60
2019-04-21T10:24:13.717Z,6.83
2019-04-21T10:26:43.087Z,7.17
2019-04-21T10:29:16.978Z,6.00
2019-04-21T10:31:42.839Z,6.37
2019-04-21T10:34:11.802Z,7.00
2019-04-21T10:36:40.841Z,6.50
2019-04-21T10:39:09.848Z,6.03
2019-04-21T10:41:39.306Z,7.30
2019-04-21T10:44:09.352Z,4.33
2019-04-21T10:46:38.450Z,7.23
2019-04-21T10:49:08.554Z,7.90
2019-04-21T10:51:37.566Z,5.30
2019-04-21T10:54:06.478Z,6.33
2019-04-21T10:56:40.270Z,5.20
2019-04-21T10:59:05.770Z,5.63
2019-04-21T11:01:34.776Z,5.13
2019-04-21T11:04:07.498Z,7.10
2019-04-21T11:06:36.851Z,7.07
2019-04-21T11:09:10.503Z,7.77
2019-04-21T11:11:39.788Z,5.57
2019-04-21T11:14:08.764Z,8.80
2019-04-21T11:16:37.669Z,5.60
2019-04-21T11:19:07.535Z,5.33
2019-04-21T11:21:36.681Z,7.37
2019-04-21T11:24:06.060Z,6.30
2019-04-21T11:26:35.921Z,5.37
2019-04-21T11:29:05.252Z,6.27
2019-04-21T11:31:34.191Z,5.77
2019-04-21T11:34:03.076Z,5.70
2019-04-21T11:36:33.175Z,6.93
2019-04-21T11:39:29.231Z,6.37
2019-04-21T11:41:51.896Z,4.67
2019-04-21T11:44:24.253Z,5.97
2019-04-21T11:46:52.139Z,5.03
2019-04-21T11:49:22.254Z,5.77
2019-04-21T11:51:51.280Z,7.07
2019-04-21T11:54:24.678Z,5.90
2019-04-21T11:56:54.798Z,5.23
2019-04-21T11:59:23.908Z,5.93
2019-04-21T12:01:53.921Z,6.70
2019-04-21T12:04:23.476Z,4.73
2019-04-21T12:06:54.028Z,5.37
2019-04-21T12:09:23.141Z,4.90
2019-04-21T12:11:53.594Z,3.73
2019-04-21T12:14:23.813Z,5.27
2019-04-21T12:16:53.034Z,4.73
2019-04-21T12:19:22.900Z,6.07
2019-04-21T12:22:02.383Z,5.57
2019-04-21T12:24:22.819Z,7.90
2019-04-21T12:26:51.808Z,4.53
2019-04-21T12:29:20.872Z,5.27
2019-04-21T12:32:07.819Z,6.43
2019-04-21T12:34:36.653Z,4.70
2019-04-21T12:37:06.706Z,6.63
2019-04-21T12:39:36.891Z,6.27
2019-04-21T12:42:06.767Z,3.67
2019-04-21T12:44:37.069Z,3.83
2019-04-21T12:47:06.146Z,4.33
2019-04-21T12:49:35.887Z,6.13
2019-04-21T12:52:05.966Z,4.47
2019-04-21T12:54:35.494Z,5.37
2019-04-21T12:57:05.413Z,4.53
2019-04-21T12:59:35.868Z,5.13
2019-04-21T13:02:04.894Z,5.83
2019-04-21T13:04:33.741Z,5.57
2019-04-21T13:07:03.698Z,6.20
2019-04-21T13:09:34.264Z,9.13
2019-04-21T13:12:03.291Z,5.13
2019-04-21T13:14:32.153Z,20.23
2019-04-21T13:17:01.379Z,7.07
2019-04-21T13:19:31.527Z,4.37
2019-04-21T13:22:01.556Z,3.87
2019-04-21T13:24:31.723Z,4.47
2019-04-21T13:27:03.260Z,5.53
2019-04-21T13:29:32.291Z,11.17
2019-04-21T13:32:04.710Z,4.33
2019-04-21T13:34:31.923Z,3.93
2019-04-21T13:37:01.526Z,4.67
2019-04-21T13:40:01.791Z,3.93
2019-04-21T13:42:21.333Z,4.40
2019-04-21T13:44:44.597Z,4.90
2019-04-21T13:47:14.525Z,5.73
2019-04-21T13:49:43.507Z,4.97
2019-04-21T13:52:13.002Z,5.70
2019-04-21T13:54:43.190Z,4.47
2019-04-21T13:57:12.480Z,5.67
2019-04-21T13:59:42.264Z,6.93
2019-04-21T14:02:11.640Z,7.63
2019-04-21T14:04:43.193Z,4.30
2019-04-21T14:07:12.348Z,4.67
2019-04-21T14:09:50.222Z,4.27
2019-04-21T14:12:11.809Z,6.07
2019-04-21T14:14:41.934Z,4.93
2019-04-21T14:17:11.019Z,5.97
2019-04-21T14:19:39.882Z,4.47
2019-04-21T14:22:11.659Z,7.93
2019-04-21T14:24:39.278Z,10.20
2019-04-21T14:27:08.156Z,6.20
2019-04-21T14:29:37.662Z,4.60
2019-04-21T14:32:06.694Z,5.87
2019-04-21T14:34:35.629Z,5.40
2019-04-21T14:37:04.575Z,7.37
2019-04-21T14:39:35.720Z,7.03
2019-04-21T14:42:04.389Z,5.60
2019-04-21T14:44:33.609Z,5.03
2019-04-21T14:47:07.004Z,6.83
2019-04-21T14:49:55.209Z,7.50
2019-04-21T14:52:25.741Z,5.57
2019-04-21T14:54:59.047Z,8.13
2019-04-21T14:57:29.407Z,4.53
2019-04-21T14:59:58.382Z,6.33
2019-04-21T15:02:27.792Z,6.27
2019-04-21T15:04:57.816Z,3.70
2019-04-21T15:07:27.581Z,5.37
2019-04-21T15:10:04.632Z,5.45
2019-04-21T15:12:27.808Z,6.77
2019-04-21T15:14:58.035Z,6.80
2019-04-21T15:17:29.130Z,5.10
2019-04-21T15:20:04.464Z,5.73
2019-04-21T15:22:30.344Z,5.13
2019-04-21T15:25:00.594Z,4.87
2019-04-21T15:27:30.761Z,4.80
2019-04-21T15:40:28.142Z,6.23
2019-04-21T15:42:46.811Z,7.10
2019-04-21T15:45:16.767Z,5.03
2019-04-21T15:47:46.161Z,5.83
2019-04-21T15:50:19.397Z,7.93
2019-04-21T15:52:47.698Z,24.80
2019-04-21T15:55:21.369Z,7.37
2019-04-21T15:57:58.601Z,7.10
2019-04-21T16:00:46.836Z,6.80
2019-04-21T16:03:16.595Z,8.03
2019-04-21T16:05:46.722Z,8.10
2019-04-21T16:08:16.402Z,10.13
2019-04-21T16:10:52.903Z,5.27
2019-04-21T16:13:16.109Z,8.20
2019-04-21T16:15:46.262Z,10.37
2019-04-21T16:18:16.171Z,7.97
2019-04-21T16:20:45.965Z,9.33
2019-04-21T16:23:15.231Z,8.27
2019-04-21T16:25:44.369Z,12.33
2019-04-21T16:28:15.429Z,6.97
2019-04-21T16:30:44.701Z,9.37
2019-04-21T16:33:14.334Z,11.03
2019-04-21T16:35:44.296Z,10.07
2019-04-21T16:38:13.400Z,9.10
2019-04-21T16:40:51.873Z,13.03
2019-04-21T16:43:14.243Z,7.40
2019-04-21T16:45:44.452Z,9.53
2019-04-21T16:48:15.016Z,8.17
2019-04-21T16:50:44.089Z,11.63
2019-04-21T16:53:14.615Z,10.33
2019-04-21T16:56:39.926Z,10.57
2019-04-21T16:59:10.619Z,9.97
2019-04-21T17:01:40.674Z,11.10
2019-04-21T17:04:10.765Z,11.30
2019-04-21T17:06:40.872Z,13.27
2019-04-21T17:09:10.653Z,12.57
2019-04-21T17:11:43.618Z,18.63
2019-04-21T17:14:27.226Z,12.03
2019-04-21T17:17:04.006Z,13.63
2019-04-21T17:19:21.306Z,12.03
2019-04-21T17:21:43.585Z,14.27
2019-04-21T17:24:12.798Z,18.17
2019-04-21T17:26:44.140Z,24.70
2019-04-21T17:29:12.542Z,14.47
2019-04-21T17:31:41.513Z,17.47
2019-04-21T17:34:16.446Z,17.07
2019-04-21T17:36:41.259Z,24.10
2019-04-21T17:39:11.134Z,54.93
2019-04-21T17:41:54.116Z,100.17
2019-04-21T17:44:11.061Z,134.17
2019-04-21T17:46:47.777Z,105.80
2019-04-21T17:49:10.862Z,105.00
2019-04-21T17:51:53.719Z,87.40
2019-04-21T17:54:27.632Z,77.57
2019-04-21T17:57:10.980Z,63.90
2019-04-21T17:59:50.634Z,61.70
2019-04-21T18:02:10.982Z,76.73
2019-04-21T18:04:42.980Z,92.63
2019-04-21T18:07:27.238Z,67.90
2019-04-21T18:10:00.877Z,115.07
2019-04-21T18:12:25.039Z,130.67
2019-04-21T18:14:53.099Z,67.30
2019-04-21T18:17:12.001Z,84.30
2019-04-21T18:19:43.381Z,90.93
2019-04-21T18:22:32.137Z,109.10
2019-04-21T18:25:05.771Z,117.03
2019-04-21T18:27:29.739Z,133.57
2019-04-21T18:30:02.467Z,140.47
2019-04-21T18:32:35.992Z,147.93
2019-04-21T18:35:14.046Z,155.83
2019-04-21T18:38:08.038Z,147.93
2019-04-21T18:40:33.856Z,180.30
2019-04-21T18:43:37.887Z,167.57
2019-04-21T18:46:22.660Z,156.87
2019-04-21T18:48:21.900Z,164.80
2019-04-21T18:51:02.515Z,201.30
2019-04-21T18:53:44.824Z,204.63
2019-04-21T18:56:05.697Z,191.50
2019-04-21T18:58:32.568Z,195.40
2019-04-21T19:01:18.181Z,188.40
2019-04-21T19:03:47.000Z,195.13
2019-04-21T19:06:18.805Z,203.50
2019-04-21T19:09:08.665Z,211.90
2019-04-21T19:11:28.656Z,201.10
2019-04-21T19:16:58.882Z,175.80
2019-04-21T19:21:55.435Z,218.43
2019-04-21T19:26:59.372Z,177.90
2019-04-21T19:31:54.882Z,138.70
2019-04-21T19:34:16.262Z,128.17
2019-04-21T19:36:48.809Z,136.70
2019-04-21T19:39:16.332Z,144.17
2019-04-21T19:41:56.088Z,131.00
2019-04-21T19:44:26.272Z,136.90
2019-04-21T19:47:02.985Z,141.50
2019-04-21T19:49:35.091Z,159.80
2019-04-21T19:51:53.287Z,154.03
2019-04-21T19:54:23.978Z,150.93
2019-04-21T19:56:44.918Z,174.40
2019-04-21T19:59:25.268Z,206.70
2019-04-21T20:01:46.765Z,191.13
2019-04-21T20:04:16.683Z,263.70
2019-04-21T20:06:58.426Z,189.57
2019-04-21T20:09:32.430Z,157.97
2019-04-21T20:11:58.107Z,148.30
2019-04-21T20:14:51.061Z,146.70
2019-04-21T20:17:00.612Z,146.90
2019-04-21T20:19:21.063Z,146.17
2019-04-21T20:21:51.174Z,156.53
2019-04-21T20:24:26.521Z,158.73
2019-04-21T20:27:01.288Z,162.10
2019-04-21T20:29:37.767Z,161.20
2019-04-21T20:32:17.863Z,149.00
2019-04-21T20:34:47.757Z,140.63
2019-04-21T20:37:17.806Z,178.23
2019-04-21T20:39:28.335Z,180.17
2019-04-21T20:42:09.680Z,101.27
2019-04-21T20:44:42.304Z,97.17
2019-04-21T20:47:07.832Z,118.57
2019-04-21T20:49:37.511Z,125.57
2019-04-21T20:52:18.901Z,115.17
2019-04-21T20:54:45.434Z,113.60
2019-04-21T20:57:18.045Z,115.60
2019-04-21T20:59:42.437Z,103.47
2019-04-21T21:02:19.061Z,93.60
2019-04-21T21:04:40.306Z,91.93
2019-04-21T21:07:28.234Z,111.30
2019-04-21T21:09:57.738Z,105.13
2019-04-21T21:14:45.977Z,102.13
2019-04-21T21:17:34.261Z,104.60
2019-04-21T21:19:57.912Z,116.27
2019-04-21T21:22:14.163Z,102.27
2019-04-21T21:24:50.545Z,114.13
2019-04-21T21:27:19.170Z,109.63
2019-04-21T21:29:49.906Z,114.60
2019-04-21T21:32:27.430Z,114.07
2019-04-21T21:34:57.207Z,124.50
2019-04-21T21:37:34.802Z,119.60
2019-04-21T21:40:04.023Z,108.53
2019-04-21T21:42:11.879Z,117.93
2019-04-21T21:44:50.464Z,93.37
2019-04-21T21:47:24.196Z,99.40
2019-04-21T21:49:59.727Z,90.27
2019-04-21T21:52:30.409Z,103.03
2019-04-21T21:54:43.618Z,99.67
2019-04-21T22:01:02.279Z,97.80
2019-04-21T22:03:34.245Z,106.60
2019-04-21T22:06:05.010Z,88.53
2019-04-21T22:08:32.419Z,85.37
2019-04-21T22:11:01.490Z,90.07
2019-04-21T22:13:37.540Z,86.20
2019-04-21T22:16:13.988Z,91.87
2019-04-21T22:19:09.536Z,79.77
2019-04-21T22:24:33.490Z,75.83
2019-04-21T22:26:47.276Z,81.67
2019-04-21T22:29:16.453Z,74.07
2019-04-21T22:31:46.889Z,87.37
2019-04-21T22:34:17.987Z,77.97
2019-04-21T22:36:56.288Z,82.63
2019-04-21T22:39:35.034Z,86.90
2019-04-21T22:42:00.527Z,71.53
2019-04-21T22:44:18.963Z,69.20
2019-04-21T22:46:58.412Z,73.77
2019-04-21T22:49:19.950Z,77.23
2019-04-21T22:51:51.807Z,74.83
2019-04-21T22:54:25.710Z,67.67
2019-04-21T22:56:57.140Z,66.27
2019-04-21T22:59:22.913Z,56.17
2019-04-21T23:01:52.622Z,56.83
2019-04-21T23:04:25.443Z,56.70
2019-04-21T23:06:56.680Z,52.37
2019-04-21T23:09:24.614Z,50.73
2019-04-21T23:11:56.643Z,79.33
2019-04-21T23:14:25.761Z,76.83
2019-04-21T23:17:14.835Z,62.17
2019-04-21T23:19:38.869Z,64.27
2019-04-21T23:22:14.726Z,54.30
2019-04-21T23:24:49.977Z,50.70
2019-04-21T23:27:11.645Z,42.50
2019-04-21T23:29:57.357Z,49.90
2019-04-21T23:32:14.941Z,46.73
2019-04-21T23:34:36.149Z,46.50
2019-04-21T23:37:07.958Z,42.77
2019-04-21T23:39:32.809Z,43.90
2019-04-21T23:42:02.664Z,51.43
2019-04-21T23:44:32.946Z,37.53
2019-04-21T23:47:06.618Z,38.47
2019-04-21T23:49:43.063Z,48.00
2019-04-21T23:52:07.093Z,48.53
2019-04-21T23:54:33.783Z,48.40
2019-04-21T23:57:11.284Z,43.87
2019-04-21T23:59:41.615Z,52.17
